sensor_id;sensor_type;location;lat;lon;timestamp;pressure;altitude;pressure_sealevel;temperature;humidity
45078;BME280;60508;42.622;25.416;2023-04-22T00:00:18;96511.59;;;11.21;64.62
45078;BME280;60508;42.622;25.416;2023-04-22T00:02:44;96514.44;;;11.09;64.42
45078;BME280;60508;42.622;25.416;2023-04-22T00:05:10;96508.78;;;11.11;64.19
45078;BME280;60508;42.622;25.416;2023-04-22T00:07:39;96515.59;;;11.19;64.24
45078;BME280;60508;42.622;25.416;2023-04-22T00:10:09;96513.72;;;11.19;63.86
45078;BME280;60508;42.622;25.416;2023-04-22T00:12:36;96511.38;;;11.28;63.81
45078;BME280;60508;42.622;25.416;2023-04-22T00:15:02;96519.75;;;11.31;64.01
45078;BME280;60508;42.622;25.416;2023-04-22T00:17:29;96524.31;;;11.31;64.42
45078;BME280;60508;42.622;25.416;2023-04-22T00:19:56;96513.50;;;11.53;63.60
45078;BME280;60508;42.622;25.416;2023-04-22T00:22:22;96516.94;;;11.81;62.63
45078;BME280;60508;42.622;25.416;2023-04-22T00:24:47;96514.13;;;11.98;62.48
45078;BME280;60508;42.622;25.416;2023-04-22T00:27:13;96501.25;;;12.05;62.79
45078;BME280;60508;42.622;25.416;2023-04-22T00:29:40;96514.53;;;12.17;63.00
45078;BME280;60508;42.622;25.416;2023-04-22T00:32:06;96516.69;;;12.15;63.24
45078;BME280;60508;42.622;25.416;2023-04-22T00:34:32;96507.28;;;11.85;63.40
45078;BME280;60508;42.622;25.416;2023-04-22T00:36:58;96531.44;;;11.75;64.02
45078;BME280;60508;42.622;25.416;2023-04-22T00:39:24;96530.53;;;11.64;63.59
45078;BME280;60508;42.622;25.416;2023-04-22T00:41:51;96534.47;;;11.56;64.09
45078;BME280;60508;42.622;25.416;2023-04-22T00:44:18;96525.97;;;11.64;64.25
45078;BME280;60508;42.622;25.416;2023-04-22T00:46:44;96534.22;;;11.58;64.89
45078;BME280;60508;42.622;25.416;2023-04-22T00:49:10;96537.13;;;11.51;65.38
45078;BME280;60508;42.622;25.416;2023-04-22T00:51:36;96534.41;;;11.46;66.46
45078;BME280;60508;42.622;25.416;2023-04-22T00:54:02;96537.13;;;11.24;67.68
45078;BME280;60508;42.622;25.416;2023-04-22T00:56:30;96536.94;;;11.03;68.90
45078;BME280;60508;42.622;25.416;2023-04-22T00:58:57;96543.19;;;11.09;69.32
45078;BME280;60508;42.622;25.416;2023-04-22T01:01:26;96538.75;;;10.98;69.14
45078;BME280;60508;42.622;25.416;2023-04-22T01:03:53;96539.00;;;10.96;69.14
45078;BME280;60508;42.622;25.416;2023-04-22T01:06:21;96540.13;;;10.78;69.75
45078;BME280;60508;42.622;25.416;2023-04-22T01:08:48;96541.25;;;11.04;68.74
45078;BME280;60508;42.622;25.416;2023-04-22T01:11:15;96539.94;;;11.07;68.53
45078;BME280;60508;42.622;25.416;2023-04-22T01:13:40;96537.69;;;10.99;69.14
45078;BME280;60508;42.622;25.416;2023-04-22T01:16:08;96538.94;;;10.69;70.37
45078;BME280;60508;42.622;25.416;2023-04-22T01:18:35;96542.41;;;10.64;70.86
45078;BME280;60508;42.622;25.416;2023-04-22T01:21:01;96531.56;;;10.59;71.87
45078;BME280;60508;42.622;25.416;2023-04-22T01:23:28;96531.31;;;10.60;72.58
45078;BME280;60508;42.622;25.416;2023-04-22T01:25:55;96529.63;;;10.54;73.72
45078;BME280;60508;42.622;25.416;2023-04-22T01:28:22;96532.06;;;10.56;74.20
45078;BME280;60508;42.622;25.416;2023-04-22T01:30:48;96535.69;;;10.67;74.28
45078;BME280;60508;42.622;25.416;2023-04-22T01:33:15;96526.50;;;10.85;73.56
45078;BME280;60508;42.622;25.416;2023-04-22T01:35:41;96516.44;;;10.75;72.87
45078;BME280;60508;42.622;25.416;2023-04-22T01:38:10;96514.25;;;10.94;72.49
45078;BME280;60508;42.622;25.416;2023-04-22T01:40:37;96510.16;;;11.13;71.03
45078;BME280;60508;42.622;25.416;2023-04-22T01:43:03;96501.66;;;11.00;70.89
45078;BME280;60508;42.622;25.416;2023-04-22T01:45:30;96511.88;;;11.25;70.03
45078;BME280;60508;42.622;25.416;2023-04-22T01:47:56;96505.31;;;11.43;69.78
45078;BME280;60508;42.622;25.416;2023-04-22T01:50:22;96503.16;;;11.12;69.46
45078;BME280;60508;42.622;25.416;2023-04-22T01:52:49;96506.94;;;10.89;71.42
45078;BME280;60508;42.622;25.416;2023-04-22T01:55:15;96499.34;;;10.81;72.12
45078;BME280;60508;42.622;25.416;2023-04-22T01:57:42;96499.09;;;10.83;71.61
45078;BME280;60508;42.622;25.416;2023-04-22T02:00:09;96494.75;;;10.82;72.00
45078;BME280;60508;42.622;25.416;2023-04-22T02:02:38;96495.47;;;10.72;72.31
45078;BME280;60508;42.622;25.416;2023-04-22T02:05:06;96499.78;;;10.73;73.03
45078;BME280;60508;42.622;25.416;2023-04-22T02:07:33;96495.16;;;10.68;73.80
45078;BME280;60508;42.622;25.416;2023-04-22T02:09:59;96482.75;;;10.89;73.38
45078;BME280;60508;42.622;25.416;2023-04-22T02:12:26;96483.88;;;10.93;73.90
45078;BME280;60508;42.622;25.416;2023-04-22T02:14:52;96489.31;;;10.99;74.11
45078;BME280;60508;42.622;25.416;2023-04-22T02:17:20;96494.84;;;10.87;74.82
45078;BME280;60508;42.622;25.416;2023-04-22T02:19:47;96484.38;;;10.90;74.87
45078;BME280;60508;42.622;25.416;2023-04-22T02:22:13;96487.25;;;11.11;73.65
45078;BME280;60508;42.622;25.416;2023-04-22T02:24:39;96495.88;;;11.08;73.95
45078;BME280;60508;42.622;25.416;2023-04-22T02:27:05;96501.28;;;11.13;73.91
45078;BME280;60508;42.622;25.416;2023-04-22T02:29:33;96498.84;;;11.11;74.16
45078;BME280;60508;42.622;25.416;2023-04-22T02:31:59;96495.78;;;11.03;74.67
45078;BME280;60508;42.622;25.416;2023-04-22T02:34:26;96508.09;;;11.21;74.42
45078;BME280;60508;42.622;25.416;2023-04-22T02:36:53;96503.47;;;11.16;74.67
45078;BME280;60508;42.622;25.416;2023-04-22T02:39:19;96502.19;;;11.24;74.52
45078;BME280;60508;42.622;25.416;2023-04-22T02:41:46;96507.16;;;11.10;75.35
45078;BME280;60508;42.622;25.416;2023-04-22T02:44:12;96504.47;;;11.10;75.67
45078;BME280;60508;42.622;25.416;2023-04-22T02:46:38;96502.13;;;10.91;76.67
45078;BME280;60508;42.622;25.416;2023-04-22T02:49:04;96481.28;;;10.76;77.50
45078;BME280;60508;42.622;25.416;2023-04-22T02:51:31;96500.72;;;10.62;79.66
45078;BME280;60508;42.622;25.416;2023-04-22T02:53:57;96506.72;;;10.30;81.99
45078;BME280;60508;42.622;25.416;2023-04-22T02:56:25;96501.69;;;10.33;82.78
45078;BME280;60508;42.622;25.416;2023-04-22T02:58:52;96503.16;;;10.41;82.15
45078;BME280;60508;42.622;25.416;2023-04-22T03:01:18;96505.69;;;10.31;81.33
45078;BME280;60508;42.622;25.416;2023-04-22T03:03:45;96501.03;;;10.26;82.21
45078;BME280;60508;42.622;25.416;2023-04-22T03:06:17;96502.34;;;10.40;81.63
45078;BME280;60508;42.622;25.416;2023-04-22T03:08:43;96497.28;;;10.44;81.43
45078;BME280;60508;42.622;25.416;2023-04-22T03:11:09;96505.19;;;10.56;80.92
45078;BME280;60508;42.622;25.416;2023-04-22T03:13:35;96490.28;;;10.65;80.32
45078;BME280;60508;42.622;25.416;2023-04-22T03:16:02;96510.41;;;10.63;80.53
45078;BME280;60508;42.622;25.416;2023-04-22T03:18:28;96506.25;;;10.33;81.96
45078;BME280;60508;42.622;25.416;2023-04-22T03:20:54;96506.84;;;10.18;82.50
45078;BME280;60508;42.622;25.416;2023-04-22T03:23:20;96508.72;;;10.17;82.68
45078;BME280;60508;42.622;25.416;2023-04-22T03:25:47;96509.41;;;10.30;82.30
45078;BME280;60508;42.622;25.416;2023-04-22T03:28:13;96504.00;;;10.08;82.86
45078;BME280;60508;42.622;25.416;2023-04-22T03:30:40;96512.78;;;10.20;83.13
45078;BME280;60508;42.622;25.416;2023-04-22T03:33:06;96503.31;;;10.34;82.80
45078;BME280;60508;42.622;25.416;2023-04-22T03:35:39;96523.81;;;10.40;82.17
45078;BME280;60508;42.622;25.416;2023-04-22T03:38:05;96514.97;;;10.23;82.68
45078;BME280;60508;42.622;25.416;2023-04-22T03:40:33;96512.53;;;10.38;82.86
45078;BME280;60508;42.622;25.416;2023-04-22T03:43:02;96515.88;;;10.51;82.04
45078;BME280;60508;42.622;25.416;2023-04-22T03:45:29;96515.09;;;10.50;82.00
45078;BME280;60508;42.622;25.416;2023-04-22T03:48:12;96514.34;;;10.55;82.07
45078;BME280;60508;42.622;25.416;2023-04-22T03:50:43;96509.28;;;10.81;81.27
45078;BME280;60508;42.622;25.416;2023-04-22T03:53:09;96514.56;;;10.98;80.58
45078;BME280;60508;42.622;25.416;2023-04-22T03:55:38;96520.50;;;11.27;78.53
45078;BME280;60508;42.622;25.416;2023-04-22T03:58:04;96525.50;;;11.13;78.51
45078;BME280;60508;42.622;25.416;2023-04-22T04:00:30;96510.25;;;10.96;78.55
45078;BME280;60508;42.622;25.416;2023-04-22T04:03:07;96533.13;;;10.99;79.42
45078;BME280;60508;42.622;25.416;2023-04-22T04:05:33;96535.50;;;11.18;78.12
45078;BME280;60508;42.622;25.416;2023-04-22T04:08:00;96547.31;;;10.94;78.66
45078;BME280;60508;42.622;25.416;2023-04-22T04:10:27;96547.19;;;11.06;78.83
45078;BME280;60508;42.622;25.416;2023-04-22T04:12:55;96529.09;;;10.96;79.04
45078;BME280;60508;42.622;25.416;2023-04-22T04:15:22;96549.38;;;11.37;77.62
45078;BME280;60508;42.622;25.416;2023-04-22T04:17:49;96550.63;;;11.56;76.83
45078;BME280;60508;42.622;25.416;2023-04-22T04:20:17;96553.69;;;11.65;76.27
45078;BME280;60508;42.622;25.416;2023-04-22T04:22:44;96553.28;;;11.51;76.97
45078;BME280;60508;42.622;25.416;2023-04-22T04:25:11;96556.09;;;11.34;77.91
45078;BME280;60508;42.622;25.416;2023-04-22T04:27:42;96533.47;;;11.35;77.71
45078;BME280;60508;42.622;25.416;2023-04-22T04:30:11;96555.91;;;11.19;78.35
45078;BME280;60508;42.622;25.416;2023-04-22T04:32:41;96551.88;;;11.16;78.59
45078;BME280;60508;42.622;25.416;2023-04-22T04:35:11;96554.09;;;11.24;78.49
45078;BME280;60508;42.622;25.416;2023-04-22T04:37:43;96556.59;;;11.31;76.97
45078;BME280;60508;42.622;25.416;2023-04-22T04:40:09;96551.50;;;11.35;76.13
45078;BME280;60508;42.622;25.416;2023-04-22T04:43:08;96556.91;;;11.12;77.79
45078;BME280;60508;42.622;25.416;2023-04-22T04:45:43;96556.91;;;11.12;78.38
45078;BME280;60508;42.622;25.416;2023-04-22T04:48:13;96557.06;;;11.23;77.22
45078;BME280;60508;42.622;25.416;2023-04-22T04:50:42;96561.22;;;11.36;75.96
45078;BME280;60508;42.622;25.416;2023-04-22T04:53:09;96563.78;;;11.25;78.06
45078;BME280;60508;42.622;25.416;2023-04-22T04:55:39;96551.34;;;11.46;78.78
45078;BME280;60508;42.622;25.416;2023-04-22T04:58:12;96556.94;;;11.67;78.54
45078;BME280;60508;42.622;25.416;2023-04-22T05:00:38;96561.94;;;11.85;77.60
45078;BME280;60508;42.622;25.416;2023-04-22T05:03:04;96570.13;;;11.96;77.76
45078;BME280;60508;42.622;25.416;2023-04-22T05:05:32;96554.00;;;12.01;76.75
45078;BME280;60508;42.622;25.416;2023-04-22T05:07:58;96563.00;;;12.17;75.03
45078;BME280;60508;42.622;25.416;2023-04-22T05:10:24;96562.25;;;12.27;74.88
45078;BME280;60508;42.622;25.416;2023-04-22T05:12:51;96559.09;;;12.40;73.37
45078;BME280;60508;42.622;25.416;2023-04-22T05:15:21;96566.50;;;12.60;72.90
45078;BME280;60508;42.622;25.416;2023-04-22T05:17:47;96570.34;;;12.69;71.56
45078;BME280;60508;42.622;25.416;2023-04-22T05:20:13;96558.72;;;12.69;73.70
45078;BME280;60508;42.622;25.416;2023-04-22T05:22:41;96564.66;;;12.71;74.43
45078;BME280;60508;42.622;25.416;2023-04-22T05:25:09;96568.59;;;12.48;74.94
45078;BME280;60508;42.622;25.416;2023-04-22T05:27:37;96563.16;;;12.37;75.79
45078;BME280;60508;42.622;25.416;2023-04-22T05:30:04;96561.97;;;12.23;76.21
45078;BME280;60508;42.622;25.416;2023-04-22T05:32:33;96563.63;;;12.29;76.06
45078;BME280;60508;42.622;25.416;2023-04-22T05:34:59;96561.28;;;12.43;75.91
45078;BME280;60508;42.622;25.416;2023-04-22T05:37:25;96574.50;;;12.45;75.13
45078;BME280;60508;42.622;25.416;2023-04-22T05:39:51;96565.88;;;12.42;75.21
45078;BME280;60508;42.622;25.416;2023-04-22T05:42:18;96567.84;;;12.57;74.74
45078;BME280;60508;42.622;25.416;2023-04-22T05:44:44;96568.34;;;12.54;75.30
45078;BME280;60508;42.622;25.416;2023-04-22T05:47:11;96557.84;;;12.53;73.65
45078;BME280;60508;42.622;25.416;2023-04-22T05:49:36;96561.69;;;12.67;74.07
45078;BME280;60508;42.622;25.416;2023-04-22T05:52:05;96576.84;;;12.78;72.04
45078;BME280;60508;42.622;25.416;2023-04-22T05:54:41;96553.69;;;12.83;72.73
45078;BME280;60508;42.622;25.416;2023-04-22T05:57:08;96565.03;;;12.95;74.05
45078;BME280;60508;42.622;25.416;2023-04-22T05:59:33;96570.53;;;13.21;73.32
45078;BME280;60508;42.622;25.416;2023-04-22T06:02:00;96576.75;;;13.21;71.05
45078;BME280;60508;42.622;25.416;2023-04-22T06:04:26;96560.03;;;13.24;71.71
45078;BME280;60508;42.622;25.416;2023-04-22T06:06:52;96570.78;;;13.19;71.29
45078;BME280;60508;42.622;25.416;2023-04-22T06:09:19;96575.63;;;13.17;71.51
45078;BME280;60508;42.622;25.416;2023-04-22T06:11:45;96577.00;;;13.20;72.77
45078;BME280;60508;42.622;25.416;2023-04-22T06:14:12;96568.97;;;13.40;71.50
45078;BME280;60508;42.622;25.416;2023-04-22T06:16:40;96573.84;;;13.43;71.75
45078;BME280;60508;42.622;25.416;2023-04-22T06:19:07;96573.09;;;13.58;70.97
45078;BME280;60508;42.622;25.416;2023-04-22T06:21:33;96573.34;;;13.62;69.21
45078;BME280;60508;42.622;25.416;2023-04-22T06:24:02;96575.25;;;13.61;67.69
45078;BME280;60508;42.622;25.416;2023-04-22T06:26:29;96576.84;;;13.67;67.29
45078;BME280;60508;42.622;25.416;2023-04-22T06:28:55;96588.75;;;13.72;66.78
45078;BME280;60508;42.622;25.416;2023-04-22T06:31:23;96586.63;;;13.84;65.48
45078;BME280;60508;42.622;25.416;2023-04-22T06:33:48;96588.75;;;13.77;64.58
45078;BME280;60508;42.622;25.416;2023-04-22T06:36:14;96585.78;;;13.83;65.57
45078;BME280;60508;42.622;25.416;2023-04-22T06:38:43;96590.91;;;13.90;66.07
45078;BME280;60508;42.622;25.416;2023-04-22T06:41:30;96592.56;;;13.81;66.38
45078;BME280;60508;42.622;25.416;2023-04-22T06:44:01;96591.19;;;13.68;66.14
45078;BME280;60508;42.622;25.416;2023-04-22T06:46:48;96594.16;;;13.72;67.79
45078;BME280;60508;42.622;25.416;2023-04-22T06:49:21;96599.28;;;13.78;68.45
45078;BME280;60508;42.622;25.416;2023-04-22T06:52:19;96590.41;;;14.09;67.17
45078;BME280;60508;42.622;25.416;2023-04-22T06:54:47;96593.63;;;14.36;66.51
45078;BME280;60508;42.622;25.416;2023-04-22T06:57:13;96597.13;;;14.52;64.09
45078;BME280;60508;42.622;25.416;2023-04-22T06:59:39;96586.56;;;14.66;63.41
45078;BME280;60508;42.622;25.416;2023-04-22T07:02:05;96596.22;;;14.98;63.04
45078;BME280;60508;42.622;25.416;2023-04-22T07:04:35;96601.22;;;15.30;62.56
45078;BME280;60508;42.622;25.416;2023-04-22T07:07:02;96605.66;;;15.61;61.21
45078;BME280;60508;42.622;25.416;2023-04-22T07:09:29;96600.91;;;15.87;58.70
45078;BME280;60508;42.622;25.416;2023-04-22T07:11:55;96606.19;;;16.08;58.56
45078;BME280;60508;42.622;25.416;2023-04-22T07:14:24;96602.44;;;15.98;51.89
45078;BME280;60508;42.622;25.416;2023-04-22T07:16:52;96604.47;;;15.82;52.29
45078;BME280;60508;42.622;25.416;2023-04-22T07:19:19;96603.66;;;15.82;53.42
45078;BME280;60508;42.622;25.416;2023-04-22T07:21:45;96605.56;;;15.81;54.11
45078;BME280;60508;42.622;25.416;2023-04-22T07:24:11;96602.72;;;15.97;54.46
45078;BME280;60508;42.622;25.416;2023-04-22T07:26:39;96604.88;;;16.00;54.07
45078;BME280;60508;42.622;25.416;2023-04-22T07:29:06;96607.88;;;16.33;53.62
45078;BME280;60508;42.622;25.416;2023-04-22T07:31:34;96603.78;;;16.65;52.74
45078;BME280;60508;42.622;25.416;2023-04-22T07:34:01;96614.72;;;16.54;52.19
45078;BME280;60508;42.622;25.416;2023-04-22T07:36:27;96614.81;;;16.73;51.32
45078;BME280;60508;42.622;25.416;2023-04-22T07:38:54;96611.28;;;17.02;50.44
45078;BME280;60508;42.622;25.416;2023-04-22T07:41:20;96612.16;;;16.97;49.70
45078;BME280;60508;42.622;25.416;2023-04-22T07:43:46;96613.91;;;16.83;50.09
45078;BME280;60508;42.622;25.416;2023-04-22T07:46:12;96615.78;;;16.88;50.04
45078;BME280;60508;42.622;25.416;2023-04-22T07:48:38;96607.75;;;17.26;50.38
45078;BME280;60508;42.622;25.416;2023-04-22T07:51:04;96613.00;;;17.60;49.52
45078;BME280;60508;42.622;25.416;2023-04-22T07:53:30;96618.69;;;17.83;48.73
45078;BME280;60508;42.622;25.416;2023-04-22T07:55:56;96608.69;;;17.97;48.14
45078;BME280;60508;42.622;25.416;2023-04-22T07:58:22;96612.84;;;18.09;47.47
45078;BME280;60508;42.622;25.416;2023-04-22T08:00:48;96615.00;;;18.12;47.35
45078;BME280;60508;42.622;25.416;2023-04-22T08:03:14;96611.47;;;17.92;47.35
45078;BME280;60508;42.622;25.416;2023-04-22T08:05:42;96613.97;;;18.08;48.22
45078;BME280;60508;42.622;25.416;2023-04-22T08:08:08;96604.69;;;18.28;47.57
45078;BME280;60508;42.622;25.416;2023-04-22T08:10:34;96622.59;;;18.48;47.92
45078;BME280;60508;42.622;25.416;2023-04-22T08:13:00;96609.78;;;18.48;47.92
45078;BME280;60508;42.622;25.416;2023-04-22T08:15:27;96613.44;;;18.57;50.44
45078;BME280;60508;42.622;25.416;2023-04-22T08:17:53;96616.41;;;18.75;51.27
45078;BME280;60508;42.622;25.416;2023-04-22T08:20:19;96616.28;;;18.80;50.60
45078;BME280;60508;42.622;25.416;2023-04-22T08:22:45;96606.69;;;18.69;46.33
45078;BME280;60508;42.622;25.416;2023-04-22T08:25:11;96623.31;;;18.67;46.76
45078;BME280;60508;42.622;25.416;2023-04-22T08:27:37;96621.97;;;18.84;46.31
45078;BME280;60508;42.622;25.416;2023-04-22T08:30:05;96619.19;;;18.56;46.03
45078;BME280;60508;42.622;25.416;2023-04-22T08:32:32;96625.22;;;18.53;47.42
45078;BME280;60508;42.622;25.416;2023-04-22T08:34:58;96621.00;;;18.09;45.93
45078;BME280;60508;42.622;25.416;2023-04-22T08:37:24;96627.66;;;17.40;45.07
45078;BME280;60508;42.622;25.416;2023-04-22T08:39:50;96620.88;;;16.65;46.52
45078;BME280;60508;42.622;25.416;2023-04-22T08:42:18;96615.50;;;16.84;44.52
45078;BME280;60508;42.622;25.416;2023-04-22T08:44:45;96621.63;;;17.00;44.67
45078;BME280;60508;42.622;25.416;2023-04-22T08:47:13;96632.75;;;16.98;42.34
45078;BME280;60508;42.622;25.416;2023-04-22T08:49:41;96624.50;;;17.09;42.52
45078;BME280;60508;42.622;25.416;2023-04-22T08:52:08;96633.53;;;17.04;41.40
45078;BME280;60508;42.622;25.416;2023-04-22T08:54:36;96636.31;;;16.99;39.70
45078;BME280;60508;42.622;25.416;2023-04-22T08:57:02;96636.31;;;16.94;40.96
45078;BME280;60508;42.622;25.416;2023-04-22T08:59:29;96628.19;;;16.94;41.30
45078;BME280;60508;42.622;25.416;2023-04-22T09:01:56;96633.53;;;16.75;40.88
45078;BME280;60508;42.622;25.416;2023-04-22T09:04:23;96626.13;;;16.80;40.31
45078;BME280;60508;42.622;25.416;2023-04-22T09:06:50;96626.66;;;16.83;39.77
45078;BME280;60508;42.622;25.416;2023-04-22T09:09:18;96629.47;;;16.72;40.96
45078;BME280;60508;42.622;25.416;2023-04-22T09:11:44;96619.31;;;16.59;41.14
45078;BME280;60508;42.622;25.416;2023-04-22T09:14:10;96613.97;;;16.78;41.88
45078;BME280;60508;42.622;25.416;2023-04-22T09:16:40;96618.84;;;17.05;43.38
45078;BME280;60508;42.622;25.416;2023-04-22T09:19:11;96602.25;;;17.31;44.15
45078;BME280;60508;42.622;25.416;2023-04-22T09:21:39;96615.88;;;17.69;43.35
45078;BME280;60508;42.622;25.416;2023-04-22T09:24:10;96619.94;;;17.91;43.31
45078;BME280;60508;42.622;25.416;2023-04-22T09:26:41;96611.09;;;17.99;40.87
45078;BME280;60508;42.622;25.416;2023-04-22T09:29:12;96594.78;;;18.51;40.28
45078;BME280;60508;42.622;25.416;2023-04-22T09:31:39;96599.66;;;18.82;39.64
45078;BME280;60508;42.622;25.416;2023-04-22T09:34:06;96596.47;;;19.21;39.45
45078;BME280;60508;42.622;25.416;2023-04-22T09:36:32;96595.84;;;19.38;38.64
45078;BME280;60508;42.622;25.416;2023-04-22T09:39:01;96595.13;;;18.77;39.09
45078;BME280;60508;42.622;25.416;2023-04-22T09:41:37;96587.56;;;18.74;39.95
45078;BME280;60508;42.622;25.416;2023-04-22T09:44:04;96592.09;;;18.78;39.93
45078;BME280;60508;42.622;25.416;2023-04-22T09:46:33;96585.56;;;18.93;40.98
45078;BME280;60508;42.622;25.416;2023-04-22T09:49:00;96584.78;;;19.57;40.64
45078;BME280;60508;42.622;25.416;2023-04-22T09:51:28;96584.03;;;19.93;38.21
45078;BME280;60508;42.622;25.416;2023-04-22T09:53:58;96590.72;;;19.73;37.71
45078;BME280;60508;42.622;25.416;2023-04-22T09:56:50;96578.59;;;19.93;39.01
45078;BME280;60508;42.622;25.416;2023-04-22T10:01:42;96575.72;;;20.43;37.11
45078;BME280;60508;42.622;25.416;2023-04-22T10:04:09;96573.13;;;20.38;35.31
45078;BME280;60508;42.622;25.416;2023-04-22T10:06:36;96579.06;;;20.40;33.92
45078;BME280;60508;42.622;25.416;2023-04-22T10:09:03;96565.38;;;19.36;37.42
45078;BME280;60508;42.622;25.416;2023-04-22T10:11:31;96573.56;;;19.08;37.54
45078;BME280;60508;42.622;25.416;2023-04-22T10:13:57;96561.88;;;19.08;37.39
45078;BME280;60508;42.622;25.416;2023-04-22T10:16:26;96561.06;;;19.21;37.71
45078;BME280;60508;42.622;25.416;2023-04-22T10:18:54;96558.50;;;19.52;36.31
45078;BME280;60508;42.622;25.416;2023-04-22T10:21:25;96550.31;;;19.52;36.60
45078;BME280;60508;42.622;25.416;2023-04-22T10:23:52;96550.69;;;19.96;37.81
45078;BME280;60508;42.622;25.416;2023-04-22T10:26:49;96543.63;;;20.18;36.05
45078;BME280;60508;42.622;25.416;2023-04-22T10:29:18;96549.47;;;19.80;35.91
45078;BME280;60508;42.622;25.416;2023-04-22T10:31:54;96558.56;;;19.47;36.65
45078;BME280;60508;42.622;25.416;2023-04-22T10:34:24;96554.84;;;18.93;36.77
45078;BME280;60508;42.622;25.416;2023-04-22T10:39:25;96563.38;;;18.25;37.56
45078;BME280;60508;42.622;25.416;2023-04-22T10:44:30;96565.78;;;17.37;40.32
45078;BME280;60508;42.622;25.416;2023-04-22T10:47:09;96571.53;;;17.11;40.83
45078;BME280;60508;42.622;25.416;2023-04-22T10:49:35;96565.16;;;17.02;40.70
45078;BME280;60508;42.622;25.416;2023-04-22T10:52:03;96562.91;;;16.85;40.34
45078;BME280;60508;42.622;25.416;2023-04-22T10:57:18;96586.28;;;16.52;41.10
45078;BME280;60508;42.622;25.416;2023-04-22T10:59:50;96590.16;;;16.46;41.30
45078;BME280;60508;42.622;25.416;2023-04-22T11:02:18;96592.09;;;16.40;41.85
45078;BME280;60508;42.622;25.416;2023-04-22T11:04:44;96586.09;;;16.43;42.21
45078;BME280;60508;42.622;25.416;2023-04-22T11:09:48;96606.25;;;16.32;42.44
45078;BME280;60508;42.622;25.416;2023-04-22T11:17:33;96620.50;;;16.48;42.26
45078;BME280;60508;42.622;25.416;2023-04-22T11:19:59;96614.63;;;16.01;43.27
45078;BME280;60508;42.622;25.416;2023-04-22T11:22:25;96621.47;;;15.93;44.59
45078;BME280;60508;42.622;25.416;2023-04-22T11:24:59;96629.63;;;15.88;45.50
45078;BME280;60508;42.622;25.416;2023-04-22T11:27:26;96627.19;;;15.86;46.63
45078;BME280;60508;42.622;25.416;2023-04-22T11:30:02;96639.84;;;15.46;48.15
45078;BME280;60508;42.622;25.416;2023-04-22T11:32:30;96627.47;;;15.30;49.14
45078;BME280;60508;42.622;25.416;2023-04-22T11:34:57;96631.53;;;15.27;49.90
45078;BME280;60508;42.622;25.416;2023-04-22T11:37:23;96635.19;;;15.57;49.85
45078;BME280;60508;42.622;25.416;2023-04-22T11:39:49;96642.38;;;15.82;50.16
45078;BME280;60508;42.622;25.416;2023-04-22T11:42:21;96644.81;;;15.84;49.81
45078;BME280;60508;42.622;25.416;2023-04-22T11:44:47;96640.22;;;15.84;51.42
45078;BME280;60508;42.622;25.416;2023-04-22T11:47:15;96651.09;;;15.69;52.82
45078;BME280;60508;42.622;25.416;2023-04-22T11:49:41;96649.25;;;15.59;54.01
45078;BME280;60508;42.622;25.416;2023-04-22T11:52:18;96647.19;;;15.41;56.23
45078;BME280;60508;42.622;25.416;2023-04-22T11:54:45;96649.19;;;15.20;56.73
45078;BME280;60508;42.622;25.416;2023-04-22T11:57:11;96651.16;;;14.99;58.42
45078;BME280;60508;42.622;25.416;2023-04-22T11:59:41;96652.78;;;14.89;58.46
45078;BME280;60508;42.622;25.416;2023-04-22T12:02:08;96659.25;;;14.93;59.23
45078;BME280;60508;42.622;25.416;2023-04-22T12:04:43;96661.94;;;15.04;57.63
45078;BME280;60508;42.622;25.416;2023-04-22T12:07:09;96658.97;;;15.00;57.82
45078;BME280;60508;42.622;25.416;2023-04-22T12:09:35;96645.22;;;14.81;59.49
45078;BME280;60508;42.622;25.416;2023-04-22T12:12:04;96656.25;;;15.05;59.45
45078;BME280;60508;42.622;25.416;2023-04-22T12:14:31;96654.97;;;14.87;59.16
45078;BME280;60508;42.622;25.416;2023-04-22T12:16:57;96653.91;;;14.73;58.34
45078;BME280;60508;42.622;25.416;2023-04-22T12:19:25;96647.94;;;14.71;58.93
45078;BME280;60508;42.622;25.416;2023-04-22T12:21:55;96658.50;;;14.67;60.30
45078;BME280;60508;42.622;25.416;2023-04-22T12:24:28;96658.50;;;14.52;62.78
45078;BME280;60508;42.622;25.416;2023-04-22T12:26:55;96655.81;;;14.62;65.39
45078;BME280;60508;42.622;25.416;2023-04-22T12:29:31;96657.44;;;14.63;65.01
45078;BME280;60508;42.622;25.416;2023-04-22T12:31:58;96666.03;;;14.55;65.16
45078;BME280;60508;42.622;25.416;2023-04-22T12:34:25;96659.56;;;14.46;66.73
45078;BME280;60508;42.622;25.416;2023-04-22T12:36:52;96646.03;;;14.56;67.06
45078;BME280;60508;42.622;25.416;2023-04-22T12:39:19;96658.44;;;14.93;66.62
45078;BME280;60508;42.622;25.416;2023-04-22T12:41:45;96660.38;;;14.77;66.26
45078;BME280;60508;42.622;25.416;2023-04-22T12:44:16;96644.97;;;14.57;65.85
45078;BME280;60508;42.622;25.416;2023-04-22T12:46:42;96652.28;;;14.62;69.07
45078;BME280;60508;42.622;25.416;2023-04-22T12:49:08;96643.34;;;14.25;71.76
45078;BME280;60508;42.622;25.416;2023-04-22T12:51:34;96649.56;;;14.25;73.27
45078;BME280;60508;42.622;25.416;2023-04-22T12:54:00;96645.53;;;14.23;75.26
45078;BME280;60508;42.622;25.416;2023-04-22T12:56:26;96644.44;;;14.14;70.23
45078;BME280;60508;42.622;25.416;2023-04-22T12:58:51;96653.06;;;14.11;69.70
45078;BME280;60508;42.622;25.416;2023-04-22T13:01:17;96651.47;;;14.15;71.37
45078;BME280;60508;42.622;25.416;2023-04-22T13:03:43;96654.69;;;14.12;71.58
45078;BME280;60508;42.622;25.416;2023-04-22T13:06:09;96656.03;;;14.14;70.22
45078;BME280;60508;42.622;25.416;2023-04-22T13:08:35;96647.69;;;14.36;70.91
45078;BME280;60508;42.622;25.416;2023-04-22T13:11:01;96652.50;;;14.55;70.68